createdAt,value
2019-02-15T00:00:13.814Z,102391.84
2019-02-15T00:02:48.356Z,102397.12
2019-02-15T00:05:14.971Z,102397.55
2019-02-15T00:07:41.647Z,102394.53
2019-02-15T00:10:08.243Z,102387.55
2019-02-15T00:12:34.853Z,102392.75
2019-02-15T00:15:01.463Z,102400.37
2019-02-15T00:17:31.556Z,102399.31
2019-02-15T00:20:00.148Z,102391.09
2019-02-15T00:22:26.835Z,102390.87
2019-02-15T00:24:53.434Z,102387.11
2019-02-15T00:27:20.053Z,102379.16
2019-02-15T00:29:46.644Z,102382.23
2019-02-15T00:32:13.406Z,102380.16
2019-02-15T00:34:39.928Z,102373.27
2019-02-15T00:37:06.510Z,102382.91
2019-02-15T00:39:33.137Z,102382.90
2019-02-15T00:41:59.746Z,102382.08
2019-02-15T00:44:26.302Z,102388.43
2019-02-15T00:46:54.832Z,102384.92
2019-02-15T00:49:23.336Z,102381.03
2019-02-15T00:51:51.841Z,102383.19
2019-02-15T00:54:20.319Z,102386.17
2019-02-15T00:56:48.833Z,102391.02
2019-02-15T00:59:17.343Z,102385.30
2019-02-15T01:01:46.044Z,102390.66
2019-02-15T01:04:14.546Z,102380.41
2019-02-15T01:06:43.032Z,102385.23
2019-02-15T01:09:12.803Z,102382.70
2019-02-15T01:11:41.525Z,102378.83
2019-02-15T01:14:08.074Z,102362.55
2019-02-15T01:16:34.699Z,102357.80
2019-02-15T01:19:01.279Z,102335.28
2019-02-15T01:21:27.856Z,102327.91
2019-02-15T01:23:54.477Z,102323.59
2019-02-15T01:26:23.007Z,102309.73
2019-02-15T01:28:51.544Z,102304.49
2019-02-15T01:31:20.071Z,102301.06
2019-02-15T01:33:48.529Z,102303.72
2019-02-15T01:36:17.055Z,102290.72
2019-02-15T01:38:45.820Z,102298.95
2019-02-15T01:41:14.431Z,102298.59
2019-02-15T01:43:43.019Z,102292.95
2019-02-15T01:46:11.627Z,102298.19
2019-02-15T01:48:38.218Z,102293.00
2019-02-15T01:51:04.753Z,102286.92
2019-02-15T01:53:31.370Z,102283.84
2019-02-15T01:56:54.229Z,102279.52
2019-02-15T01:59:20.876Z,102272.07
2019-02-15T02:01:47.474Z,102279.06
2019-02-15T02:04:14.024Z,102288.92
2019-02-15T02:06:40.624Z,102292.14
2019-02-15T02:09:07.200Z,102297.79
2019-02-15T02:11:33.925Z,102296.52
2019-02-15T02:14:00.554Z,102310.40
2019-02-15T02:16:27.180Z,102312.01
2019-02-15T02:18:53.760Z,102309.98
2019-02-15T02:21:20.365Z,102309.24
2019-02-15T02:23:46.987Z,102309.30
2019-02-15T02:26:13.562Z,102301.45
2019-02-15T02:28:40.132Z,102294.55
2019-02-15T02:31:06.821Z,102289.74
2019-02-15T02:33:33.456Z,102283.69
2019-02-15T02:36:01.329Z,102280.66
2019-02-15T02:38:27.924Z,102277.17
2019-02-15T02:40:54.494Z,102275.41
2019-02-15T02:43:21.108Z,102268.89
2019-02-15T02:45:48.939Z,102266.28
2019-02-15T02:48:15.584Z,102271.11
2019-02-15T02:50:42.175Z,102259.37
2019-02-15T02:53:08.703Z,102262.89
2019-02-15T02:55:35.307Z,102258.06
2019-02-15T02:58:01.934Z,102259.36
2019-02-15T03:00:33.649Z,102256.81
2019-02-15T03:02:57.020Z,102246.81
2019-02-15T03:05:23.574Z,102247.23
2019-02-15T03:07:50.212Z,102240.69
2019-02-15T03:10:17.332Z,102239.39
2019-02-15T03:12:44.020Z,102234.27
2019-02-15T03:15:10.593Z,102240.31
2019-02-15T03:17:37.219Z,102237.33
2019-02-15T03:20:05.936Z,102240.39
2019-02-15T03:22:32.636Z,102245.19
2019-02-15T03:24:59.269Z,102238.65
2019-02-15T03:27:27.063Z,102242.57
2019-02-15T03:29:53.635Z,102247.86
2019-02-15T03:32:20.299Z,102243.06
2019-02-15T03:34:47.049Z,102243.07
2019-02-15T03:37:15.626Z,102249.63
2019-02-15T03:39:44.147Z,102254.86
2019-02-15T03:42:12.758Z,102248.35
2019-02-15T03:44:39.306Z,102253.14
2019-02-15T03:47:05.879Z,102254.44
2019-02-15T03:49:32.458Z,102251.83
2019-02-15T03:51:59.016Z,102254.00
2019-02-15T03:54:25.664Z,102245.24
2019-02-15T03:56:52.294Z,102240.91
2019-02-15T03:59:18.867Z,102244.83
2019-02-15T04:01:45.860Z,102246.14
2019-02-15T04:04:12.414Z,102253.13
2019-02-15T04:06:38.946Z,102255.75
2019-02-15T04:09:05.815Z,102251.38
2019-02-15T04:11:32.469Z,102246.14
2019-02-15T04:13:59.186Z,102242.22
2019-02-15T04:16:25.762Z,102249.21
2019-02-15T04:18:52.367Z,102250.08
2019-02-15T04:21:19.113Z,102246.19
2019-02-15T04:23:45.711Z,102240.50
2019-02-15T04:26:12.391Z,102253.14
2019-02-15T04:28:38.953Z,102254.03
2019-02-15T04:31:05.519Z,102253.59
2019-02-15T04:33:32.181Z,102255.77
2019-02-15T04:36:00.099Z,102245.73
2019-02-15T04:38:26.822Z,102249.66
2019-02-15T04:40:53.452Z,102247.05
2019-02-15T04:43:20.056Z,102246.59
2019-02-15T04:45:46.624Z,102250.97
2019-02-15T04:48:13.185Z,102241.36
2019-02-15T04:50:39.805Z,102248.80
2019-02-15T04:53:06.448Z,102254.03
2019-02-15T04:55:33.026Z,102248.80
2019-02-15T04:57:59.648Z,102250.55
2019-02-15T05:00:26.269Z,102261.89
2019-02-15T05:02:52.814Z,102257.52
2019-02-15T05:05:19.398Z,102252.73
2019-02-15T05:07:46.314Z,102257.97
2019-02-15T05:10:13.078Z,102257.97
2019-02-15T05:12:39.734Z,102271.05
2019-02-15T05:15:07.232Z,102267.58
2019-02-15T05:17:33.969Z,102260.55
2019-02-15T05:20:03.349Z,102271.47
2019-02-15T05:22:29.910Z,102271.47
2019-02-15T05:24:56.604Z,102276.73
2019-02-15T05:27:23.301Z,102276.73
2019-02-15T05:29:49.943Z,102276.74
2019-02-15T05:32:16.704Z,102277.16
2019-02-15T05:34:43.526Z,102279.33
2019-02-15T05:37:10.131Z,102277.56
2019-02-15T05:39:36.711Z,102281.98
2019-02-15T05:42:03.263Z,102275.44
2019-02-15T05:44:29.841Z,102284.59
2019-02-15T05:46:56.885Z,102277.60
2019-02-15T05:49:23.477Z,102267.99
2019-02-15T05:51:50.131Z,102271.47
2019-02-15T05:54:17.323Z,102276.70
2019-02-15T05:56:44.113Z,102286.72
2019-02-15T05:59:10.783Z,102288.92
2019-02-15T06:01:37.458Z,102296.38
2019-02-15T06:04:04.052Z,102289.39
2019-02-15T06:06:30.695Z,102292.45
2019-02-15T06:08:57.304Z,102286.36
2019-02-15T06:11:23.874Z,102293.34
2019-02-15T06:13:50.761Z,102294.21
2019-02-15T06:16:17.393Z,102297.69
2019-02-15T06:18:44.136Z,102300.72
2019-02-15T06:21:10.741Z,102305.09
2019-02-15T06:23:38.307Z,102303.38
2019-02-15T06:26:04.863Z,102305.55
2019-02-15T06:28:31.586Z,102301.17
2019-02-15T06:30:58.124Z,102305.95
2019-02-15T06:33:24.742Z,102308.61
2019-02-15T06:35:51.356Z,102309.03
2019-02-15T06:38:18.029Z,102309.48
2019-02-15T06:40:45.995Z,102306.39
2019-02-15T06:43:12.676Z,102310.73
2019-02-15T06:45:39.214Z,102305.54
2019-02-15T06:48:05.810Z,102299.86
2019-02-15T06:50:32.398Z,102307.30
2019-02-15T06:52:58.967Z,102309.96
2019-02-15T06:55:25.595Z,102315.20
2019-02-15T06:58:51.097Z,102317.78
2019-02-15T07:01:19.671Z,102315.20
2019-02-15T07:03:49.579Z,102318.68
2019-02-15T07:06:16.128Z,102319.13
2019-02-15T07:08:42.817Z,102317.78
2019-02-15T07:11:09.370Z,102311.27
2019-02-15T07:13:35.941Z,102317.82
2019-02-15T07:16:02.548Z,102321.75
2019-02-15T07:18:29.106Z,102322.61
2019-02-15T07:20:55.702Z,102320.88
2019-02-15T07:23:22.239Z,102325.67
2019-02-15T07:25:49.581Z,102327.43
2019-02-15T07:28:16.536Z,102323.09
2019-02-15T07:30:46.265Z,102327.45
2019-02-15T07:33:12.969Z,102330.94
2019-02-15T07:35:39.757Z,102341.84
2019-02-15T07:38:06.463Z,102335.30
2019-02-15T07:40:33.013Z,102334.87
2019-02-15T07:42:59.831Z,102336.20
2019-02-15T07:45:26.738Z,102330.52
2019-02-15T07:47:53.338Z,102329.20
2019-02-15T07:50:20.117Z,102324.38
2019-02-15T07:52:46.723Z,102323.96
2019-02-15T07:55:13.271Z,102318.28
2019-02-15T07:57:40.453Z,102316.53
2019-02-15T08:00:13.240Z,102304.28
2019-02-15T08:02:39.820Z,102304.73
2019-02-15T08:05:07.986Z,102299.06
2019-02-15T08:07:34.620Z,102295.11
2019-02-15T08:10:01.455Z,102299.92
2019-02-15T08:12:28.191Z,102302.52
2019-02-15T08:14:54.951Z,102298.16
2019-02-15T08:17:21.568Z,102303.84
2019-02-15T08:19:48.177Z,102295.11
2019-02-15T08:22:14.939Z,102292.45
2019-02-15T08:24:41.522Z,102297.27
2019-02-15T08:27:08.132Z,102285.41
2019-02-15T08:29:34.690Z,102287.18
2019-02-15T08:32:01.316Z,102293.77
2019-02-15T08:34:27.923Z,102284.14
2019-02-15T08:36:54.554Z,102295.88
2019-02-15T08:39:21.153Z,102288.41
2019-02-15T08:42:00.534Z,102285.75
2019-02-15T08:44:16.232Z,102290.57
2019-02-15T08:46:43.147Z,102291.41
2019-02-15T08:49:09.936Z,102287.09
2019-02-15T08:51:36.528Z,102291.45
2019-02-15T08:54:03.117Z,102290.08
2019-02-15T08:56:29.719Z,102288.36
2019-02-15T08:58:56.456Z,102287.81
2019-02-15T09:01:23.139Z,102284.25
2019-02-15T09:03:49.672Z,102285.59
2019-02-15T09:06:16.273Z,102278.16
2019-02-15T09:08:42.922Z,102273.31
2019-02-15T09:11:09.610Z,102274.67
2019-02-15T09:13:36.379Z,102272.02
2019-02-15T09:16:10.138Z,102275.53
2019-02-15T09:18:31.449Z,102277.27
2019-02-15T09:20:58.103Z,102270.75
2019-02-15T09:23:24.661Z,102275.91
2019-02-15T09:25:51.246Z,102280.09
2019-02-15T09:28:19.789Z,102272.72
2019-02-15T09:30:48.322Z,102275.66
2019-02-15T09:33:14.874Z,102276.54
2019-02-15T09:35:41.471Z,102275.07
2019-02-15T09:38:08.059Z,102271.38
2019-02-15T09:40:34.629Z,102271.88
2019-02-15T09:43:01.218Z,102266.69
2019-02-15T09:46:24.311Z,102269.00
2019-02-15T09:48:50.855Z,102270.55
2019-02-15T09:51:17.547Z,102275.30
2019-02-15T09:53:44.354Z,102274.78
2019-02-15T09:57:07.469Z,102263.05
2019-02-15T09:59:34.084Z,102268.41
2019-02-15T10:02:00.772Z,102270.63
2019-02-15T10:04:27.391Z,102257.09
2019-02-15T10:06:54.035Z,102259.08
2019-02-15T10:09:20.605Z,102253.17
2019-02-15T10:11:47.251Z,102247.47
2019-02-15T10:14:13.855Z,102254.83
2019-02-15T10:16:40.531Z,102244.41
2019-02-15T10:19:07.136Z,102242.73
2019-02-15T10:21:33.742Z,102253.62
2019-02-15T10:24:00.310Z,102249.47
2019-02-15T10:26:27.080Z,102252.03
2019-02-15T10:28:53.783Z,102244.94
2019-02-15T10:31:20.466Z,102243.18
2019-02-15T10:33:47.105Z,102238.50
2019-02-15T10:36:13.804Z,102241.51
2019-02-15T10:38:40.395Z,102241.51
2019-02-15T10:41:06.983Z,102232.62
2019-02-15T10:43:33.612Z,102233.02
2019-02-15T10:46:00.188Z,102234.00
2019-02-15T10:48:26.885Z,102234.00
2019-02-15T10:50:53.531Z,102224.16
2019-02-15T10:53:20.093Z,102224.55
2019-02-15T10:55:46.660Z,102221.80
2019-02-15T10:58:15.982Z,102224.20
2019-02-15T11:00:42.621Z,102224.41
2019-02-15T11:03:09.293Z,102217.41
2019-02-15T11:06:32.365Z,102226.29
2019-02-15T11:08:58.936Z,102219.59
2019-02-15T11:11:25.639Z,102216.13
2019-02-15T11:13:52.215Z,102220.06
2019-02-15T11:16:19.880Z,102217.27
2019-02-15T11:18:46.515Z,102217.37
2019-02-15T11:21:14.557Z,102212.06
2019-02-15T11:23:41.152Z,102209.06
2019-02-15T11:26:07.735Z,102207.09
2019-02-15T11:28:34.598Z,102208.05
2019-02-15T11:31:01.205Z,102208.41
2019-02-15T11:33:27.736Z,102196.86
2019-02-15T11:35:54.340Z,102189.30
2019-02-15T11:38:20.878Z,102192.48
2019-02-15T11:40:47.490Z,102186.70
2019-02-15T11:43:15.164Z,102185.66
2019-02-15T11:45:42.011Z,102184.59
2019-02-15T11:48:08.613Z,102183.11
2019-02-15T11:50:36.004Z,102186.23
2019-02-15T11:53:02.938Z,102186.17
2019-02-15T11:55:29.541Z,102185.94
2019-02-15T11:57:56.987Z,102187.47
2019-02-15T12:00:26.256Z,102181.38
2019-02-15T12:02:52.832Z,102172.52
2019-02-15T12:05:21.473Z,102166.22
2019-02-15T12:07:48.072Z,102170.36
2019-02-15T12:10:14.646Z,102166.42
2019-02-15T12:12:41.261Z,102169.69
2019-02-15T12:15:09.370Z,102167.01
2019-02-15T12:17:35.911Z,102162.24
2019-02-15T12:20:07.580Z,102165.69
2019-02-15T12:22:34.153Z,102156.74
2019-02-15T12:25:00.729Z,102159.63
2019-02-15T12:27:27.362Z,102158.23
2019-02-15T12:29:53.943Z,102149.88
2019-02-15T12:32:20.572Z,102151.63
2019-02-15T12:34:47.376Z,102154.61
2019-02-15T12:37:13.935Z,102153.73
2019-02-15T12:39:40.799Z,102150.34
2019-02-15T12:42:10.396Z,102153.95
2019-02-15T12:44:37.781Z,102157.06
2019-02-15T12:47:04.402Z,102149.71
2019-02-15T12:49:30.974Z,102149.73
2019-02-15T12:51:57.538Z,102147.75
2019-02-15T12:54:24.379Z,102149.31
2019-02-15T12:56:50.977Z,102142.80
2019-02-15T12:59:29.648Z,102145.66
2019-02-15T13:01:56.425Z,102140.70
2019-02-15T13:04:23.111Z,102142.00
2019-02-15T13:06:49.860Z,102137.52
2019-02-15T13:09:16.668Z,102148.23
2019-02-15T13:11:44.715Z,102147.49
2019-02-15T13:14:11.399Z,102148.56
2019-02-15T13:16:37.990Z,102142.64
2019-02-15T13:19:04.554Z,102143.48
2019-02-15T13:21:31.121Z,102143.59
2019-02-15T13:23:57.905Z,102144.64
2019-02-15T13:26:24.639Z,102140.62
2019-02-15T13:28:51.318Z,102139.09
2019-02-15T13:31:17.960Z,102144.11
2019-02-15T13:34:40.833Z,102138.41
2019-02-15T13:37:07.501Z,102129.53
2019-02-15T13:39:34.289Z,102129.23
2019-02-15T13:42:00.868Z,102130.13
2019-02-15T13:45:23.853Z,102133.05
2019-02-15T13:47:50.795Z,102131.08
2019-02-15T13:50:19.064Z,102131.48
2019-02-15T13:52:46.037Z,102127.27
2019-02-15T13:55:12.673Z,102126.92
2019-02-15T13:57:39.347Z,102122.64
2019-02-15T14:00:11.624Z,102126.72
2019-02-15T14:02:38.255Z,102115.83
2019-02-15T14:05:09.698Z,102127.59
2019-02-15T14:07:36.536Z,102126.30
2019-02-15T14:10:07.334Z,102125.55
2019-02-15T14:12:35.037Z,102131.34
2019-02-15T14:15:02.701Z,102126.62
2019-02-15T14:17:29.301Z,102116.58
2019-02-15T14:19:55.907Z,102113.95
2019-02-15T14:22:22.639Z,102123.60
2019-02-15T14:24:49.398Z,102111.83
2019-02-15T14:27:16.020Z,102110.09
2019-02-15T14:29:42.596Z,102112.63
2019-02-15T14:32:09.203Z,102108.75
2019-02-15T14:34:35.899Z,102110.55
2019-02-15T14:37:02.551Z,102110.06
2019-02-15T14:39:29.229Z,102109.67
2019-02-15T14:41:55.858Z,102111.42
2019-02-15T14:44:22.598Z,102112.66
2019-02-15T14:46:49.184Z,102117.87
2019-02-15T14:49:15.748Z,102116.62
2019-02-15T14:51:42.419Z,102115.06
2019-02-15T14:54:10.295Z,102105.86
2019-02-15T14:56:37.156Z,102111.22
2019-02-15T14:59:03.703Z,102113.35
2019-02-15T15:01:31.254Z,102105.93
2019-02-15T15:03:57.861Z,102114.73
2019-02-15T15:06:24.484Z,102121.31
2019-02-15T15:08:51.043Z,102115.20
2019-02-15T15:11:17.627Z,102117.11
2019-02-15T15:13:44.366Z,102114.09
2019-02-15T15:16:10.970Z,102120.30
2019-02-15T15:18:37.529Z,102121.17
2019-02-15T15:21:04.169Z,102117.70
2019-02-15T15:23:30.800Z,102110.22
2019-02-15T15:25:57.403Z,102109.77
2019-02-15T15:28:23.997Z,102103.73
2019-02-15T15:30:50.594Z,102101.10
2019-02-15T15:33:17.383Z,102102.40
2019-02-15T15:35:44.001Z,102106.79
2019-02-15T15:39:07.777Z,102110.31
2019-02-15T15:41:34.693Z,102107.69
2019-02-15T15:44:01.353Z,102107.70
2019-02-15T15:46:28.021Z,102109.52
2019-02-15T15:48:54.626Z,102107.27
2019-02-15T15:51:21.315Z,102119.98
2019-02-15T15:53:48.078Z,102115.22
2019-02-15T15:56:14.717Z,102115.20
2019-02-15T15:58:41.280Z,102120.92
2019-02-15T16:01:07.883Z,102122.67
2019-02-15T16:03:34.616Z,102119.20
2019-02-15T16:06:01.370Z,102127.48
2019-02-15T16:08:28.212Z,102126.17
2019-02-15T16:10:55.493Z,102134.04
2019-02-15T16:13:22.642Z,102134.02
2019-02-15T16:15:49.206Z,102133.16
2019-02-15T16:18:15.839Z,102144.91
2019-02-15T16:20:42.583Z,102152.75
2019-02-15T16:23:09.449Z,102146.24
2019-02-15T16:25:36.451Z,102155.40
2019-02-15T16:28:03.319Z,102145.80
2019-02-15T16:30:29.935Z,102151.47
2019-02-15T16:32:56.632Z,102144.94
2019-02-15T16:35:23.283Z,102157.09
2019-02-15T16:37:49.978Z,102159.74
2019-02-15T16:40:16.905Z,102161.05
2019-02-15T16:42:45.272Z,102164.56
2019-02-15T16:45:15.118Z,102165.00
2019-02-15T16:47:42.158Z,102172.83
2019-02-15T16:50:09.939Z,102173.27
2019-02-15T16:52:36.917Z,102164.52
2019-02-15T16:55:12.684Z,102161.02
2019-02-15T16:58:31.783Z,102175.39
2019-02-15T17:00:58.479Z,102167.47
2019-02-15T17:03:25.237Z,102164.45
2019-02-15T17:05:51.812Z,102163.98
2019-02-15T17:08:18.422Z,102163.55
2019-02-15T17:10:45.231Z,102168.77
2019-02-15T17:13:11.918Z,102167.45
2019-02-15T17:15:38.890Z,102161.78
2019-02-15T17:18:05.536Z,102170.97
2019-02-15T17:20:33.025Z,102177.05
2019-02-15T17:22:59.761Z,102173.08
2019-02-15T17:25:27.047Z,102175.63
2019-02-15T17:27:53.664Z,102176.91
2019-02-15T17:30:20.379Z,102173.38
2019-02-15T17:32:46.976Z,102180.28
2019-02-15T17:35:13.577Z,102183.44
2019-02-15T17:37:40.161Z,102181.69
2019-02-15T17:40:10.666Z,102187.30
2019-02-15T17:42:37.293Z,102184.14
2019-02-15T17:45:07.248Z,102190.34
2019-02-15T17:47:33.902Z,102182.90
2019-02-15T17:50:00.474Z,102173.81
2019-02-15T17:52:27.099Z,102186.03
2019-02-15T17:54:53.707Z,102190.81
2019-02-15T17:57:20.303Z,102185.19
2019-02-15T17:59:46.978Z,102192.05
2019-02-15T18:02:13.748Z,102188.12
2019-02-15T18:04:40.395Z,102182.07
2019-02-15T18:07:06.999Z,102188.59
2019-02-15T18:09:33.596Z,102194.13
2019-02-15T18:12:00.169Z,102188.94
2019-02-15T18:14:26.911Z,102198.91
2019-02-15T18:16:53.506Z,102188.55
2019-02-15T18:19:20.101Z,102185.98
2019-02-15T18:21:47.129Z,102188.59
2019-02-15T18:24:14.005Z,102189.03
2019-02-15T18:26:40.566Z,102186.33
2019-02-15T18:29:07.151Z,102178.98
2019-02-15T18:31:33.753Z,102182.87
2019-02-15T18:34:00.392Z,102185.39
2019-02-15T18:36:27.137Z,102185.48
2019-02-15T18:38:53.730Z,102180.64
2019-02-15T18:41:20.361Z,102183.73
2019-02-15T18:43:47.059Z,102191.89
2019-02-15T18:46:13.806Z,102191.14
2019-02-15T18:48:40.419Z,102190.32
2019-02-15T18:51:07.004Z,102189.38
2019-02-15T18:53:33.883Z,102194.17
2019-02-15T18:56:00.477Z,102202.81
2019-02-15T18:58:27.060Z,102196.77
2019-02-15T19:00:53.605Z,102198.55
2019-02-15T19:03:20.261Z,102196.37
2019-02-15T19:05:47.201Z,102200.78
2019-02-15T19:08:13.797Z,102197.25
2019-02-15T19:10:40.529Z,102200.70
2019-02-15T19:13:07.109Z,102194.65
2019-02-15T19:15:33.682Z,102191.45
2019-02-15T19:18:00.282Z,102194.55
2019-02-15T19:20:26.889Z,102195.45
2019-02-15T19:22:53.467Z,102183.69
2019-02-15T19:25:20.065Z,102185.09
2019-02-15T19:27:47.067Z,102180.73
2019-02-15T19:30:18.674Z,102181.64
2019-02-15T19:32:45.569Z,102179.39
2019-02-15T19:35:12.614Z,102185.92
2019-02-15T19:37:39.226Z,102183.73
2019-02-15T19:40:10.666Z,102180.23
2019-02-15T19:42:39.065Z,102183.71
2019-02-15T19:45:09.459Z,102182.39
2019-02-15T19:47:36.190Z,102182.03
2019-02-15T19:50:08.134Z,102180.28
2019-02-15T19:52:34.692Z,102175.48
2019-02-15T19:55:01.633Z,102168.05
2019-02-15T19:57:28.341Z,102172.45
2019-02-15T19:59:54.928Z,102178.85
2019-02-15T20:02:21.874Z,102168.41
2019-02-15T20:04:48.923Z,102165.81
2019-02-15T20:07:15.557Z,102157.95
2019-02-15T20:09:42.117Z,102159.36
2019-02-15T20:12:08.735Z,102161.47
2019-02-15T20:14:35.460Z,102165.34
2019-02-15T20:17:02.034Z,102168.86
2019-02-15T20:19:28.626Z,102167.45
2019-02-15T20:21:55.232Z,102166.64
2019-02-15T20:24:21.826Z,102172.27
2019-02-15T20:26:48.441Z,102172.80
2019-02-15T20:29:14.989Z,102177.20
2019-02-15T20:31:41.617Z,102169.34
2019-02-15T20:34:08.503Z,102167.10
2019-02-15T20:36:35.076Z,102163.20
2019-02-15T20:39:01.689Z,102164.50
2019-02-15T20:42:26.947Z,102156.73
2019-02-15T20:44:54.552Z,102161.02
2019-02-15T20:47:21.948Z,102160.11
2019-02-15T20:49:57.630Z,102160.64
2019-02-15T20:52:18.707Z,102157.59
2019-02-15T20:54:45.494Z,102160.11
2019-02-15T20:57:12.705Z,102150.08
2019-02-15T20:59:40.096Z,102145.80
2019-02-15T21:02:06.745Z,102140.57
2019-02-15T21:04:33.420Z,102140.52
2019-02-15T21:07:00.113Z,102143.20
2019-02-15T21:09:26.669Z,102144.87
2019-02-15T21:11:53.208Z,102144.87
2019-02-15T21:14:19.834Z,102143.20
2019-02-15T21:16:46.576Z,102144.51
2019-02-15T21:19:14.729Z,102134.40
2019-02-15T21:21:41.459Z,102139.64
2019-02-15T21:24:08.581Z,102136.93
2019-02-15T21:26:35.790Z,102140.95
2019-02-15T21:29:02.422Z,102148.81
2019-02-15T21:31:29.619Z,102141.81
2019-02-15T21:33:56.360Z,102152.23
2019-02-15T21:36:23.302Z,102150.90
2019-02-15T21:38:50.045Z,102154.83
2019-02-15T21:41:16.724Z,102153.98
2019-02-15T21:43:43.345Z,102153.19
2019-02-15T21:46:13.073Z,102153.64
2019-02-15T21:48:39.796Z,102156.25
2019-02-15T21:54:51.156Z,102160.92
2019-02-15T21:57:18.115Z,102158.31
2019-02-15T21:59:44.914Z,102156.16
2019-02-15T22:02:12.738Z,102153.09
2019-02-15T22:04:51.400Z,102154.84
2019-02-15T22:07:18.903Z,102159.59
2019-02-15T22:09:45.699Z,102158.50
2019-02-15T22:12:12.341Z,102166.30
2019-02-15T22:14:38.932Z,102161.24
2019-02-15T22:17:05.522Z,102161.24
2019-02-15T22:19:32.104Z,102153.94
2019-02-15T22:21:58.712Z,102155.23
2019-02-15T22:24:25.265Z,102154.77
2019-02-15T22:26:51.842Z,102156.96
2019-02-15T22:29:18.513Z,102155.20
2019-02-15T22:31:45.223Z,102149.55
2019-02-15T22:34:11.855Z,102150.48
2019-02-15T22:36:38.561Z,102152.95
2019-02-15T22:39:05.264Z,102147.70
2019-02-15T22:41:33.252Z,102146.09
2019-02-15T22:43:59.870Z,102148.77
2019-02-15T22:46:26.497Z,102144.01
2019-02-15T22:48:53.049Z,102136.11
2019-02-15T22:51:19.616Z,102136.07
2019-02-15T22:53:46.362Z,102136.57
2019-02-15T22:56:12.962Z,102136.94
2019-02-15T22:58:39.536Z,102143.47
2019-02-15T23:01:10.379Z,102131.67
2019-02-15T23:03:37.215Z,102137.36
2019-02-15T23:06:03.815Z,102134.20
2019-02-15T23:08:31.863Z,102125.88
2019-02-15T23:10:58.412Z,102134.98
2019-02-15T23:13:25.784Z,102132.39
2019-02-15T23:15:52.337Z,102129.09
2019-02-15T23:18:19.217Z,102118.25
2019-02-15T23:20:46.293Z,102121.70
2019-02-15T23:23:12.920Z,102117.80
2019-02-15T23:25:39.506Z,102126.00
2019-02-15T23:28:06.134Z,102129.84
2019-02-15T23:30:32.715Z,102129.89
2019-02-15T23:32:59.287Z,102131.23
2019-02-15T23:35:25.857Z,102123.28
2019-02-15T23:37:52.493Z,102126.37
2019-02-15T23:40:19.097Z,102130.02
2019-02-15T23:42:45.791Z,102129.08
2019-02-15T23:45:12.373Z,102128.15
2019-02-15T23:47:38.935Z,102125.55
2019-02-15T23:50:07.927Z,102127.19
2019-02-15T23:52:34.499Z,102118.52
2019-02-15T23:55:01.169Z,102119.33
2019-02-15T23:57:27.714Z,102119.78
2019-02-15T23:59:54.324Z,102118.90
